ES-0030 weather

Valle Amblés
El Fresno, Castilla y León, Spain

Public forecast

Using degrees Celsius for public forecast. Weather courtesy of forecast.io.

Closest aviation weather report (METAR) to Valle Amblés

Closest report is Salamanca Airport, 38.5 nm (71.3 km) WNW. Retrieved 2019/10/23 14:30 UTC (0 seconds ago):

LESA 231430Z 32008KT 290V350 9999 FEW012 SCT018 OVC024 09/08 Q1009

Closest aviation forecast (TAF) to Valle Amblés

Closest forecast is Salamanca Airport, 38.5 nm (71.3 km) WNW. Retrieved 2019/10/23 12:27 UTC (2 hours ago):

TAF LESA 231100Z 2312/2412 31010KT 9999 SCT015 BKN020 TX12/2412Z TN05/2406Z BECMG 2404/2406 VRB05KT TEMPO 2312/2324 3000 RA PROB30 TEMPO 2322/2408 0200 FG OVC002